createdAt,value
2018-04-06T04:00:53.038Z,0
2018-04-06T04:01:18.546Z,0
2018-04-06T04:01:44.035Z,0
2018-04-06T04:02:09.535Z,0
2018-04-06T04:02:35.031Z,0
2018-04-06T04:03:00.523Z,0
2018-04-06T04:03:26.026Z,0
2018-04-06T04:03:51.552Z,0
2018-04-06T04:04:17.052Z,0
2018-04-06T04:04:42.548Z,0
2018-04-06T04:05:08.049Z,0
2018-04-06T04:05:33.546Z,0
2018-04-06T04:05:59.063Z,0
2018-04-06T04:06:24.555Z,0
2018-04-06T04:06:50.059Z,0
2018-04-06T04:07:15.585Z,0
2018-04-06T04:07:41.085Z,0
2018-04-06T04:08:06.602Z,0
2018-04-06T04:08:32.102Z,0
2018-04-06T04:08:57.600Z,0
2018-04-06T04:09:23.089Z,0
2018-04-06T04:09:48.576Z,0
2018-04-06T04:10:14.066Z,0
2018-04-06T04:10:39.569Z,0
2018-04-06T04:11:05.069Z,0
2018-04-06T04:11:30.585Z,0
2018-04-06T04:11:56.104Z,0
2018-04-06T04:12:21.531Z,0
2018-04-06T04:12:47.020Z,0
2018-04-06T04:13:12.521Z,0
2018-04-06T04:13:38.021Z,0
2018-04-06T04:14:03.515Z,0
2018-04-06T04:14:29.010Z,0
2018-04-06T04:14:54.492Z,0
2018-04-06T04:15:19.987Z,0
2018-04-06T04:15:45.498Z,0
2018-04-06T04:16:10.992Z,0
2018-04-06T04:16:36.489Z,0
2018-04-06T04:17:01.990Z,0
2018-04-06T04:17:27.480Z,0
2018-04-06T04:17:52.982Z,0
2018-04-06T04:18:18.488Z,0
2018-04-06T04:18:43.970Z,0
2018-04-06T04:19:09.479Z,0
2018-04-06T04:19:34.986Z,0
2018-04-06T04:20:00.483Z,0
2018-04-06T04:20:25.989Z,0
2018-04-06T04:20:51.481Z,0
2018-04-06T04:21:16.985Z,0
2018-04-06T04:21:42.479Z,0
2018-04-06T04:22:07.972Z,0
2018-04-06T04:22:33.461Z,0
2018-04-06T04:22:58.955Z,0
2018-04-06T04:23:24.451Z,0
2018-04-06T04:23:49.953Z,0
2018-04-06T04:24:15.450Z,0
2018-04-06T04:24:40.965Z,0
2018-04-06T04:25:06.467Z,0
2018-04-06T04:25:31.960Z,0
2018-04-06T04:25:57.461Z,0
2018-04-06T04:26:22.960Z,0
2018-04-06T04:26:48.449Z,0
2018-04-06T04:27:57.219Z,0
2018-04-06T04:28:22.672Z,0
2018-04-06T04:28:48.172Z,0
2018-04-06T04:29:13.669Z,0
2018-04-06T04:29:39.178Z,0
2018-04-06T04:30:04.674Z,0
2018-04-06T04:30:30.165Z,0
2018-04-06T04:30:55.668Z,0
2018-04-06T04:31:21.168Z,0
2018-04-06T04:31:46.651Z,0
2018-04-06T04:32:12.141Z,0
2018-04-06T04:32:37.636Z,0
2018-04-06T04:33:03.130Z,0
2018-04-06T04:33:28.634Z,0
2018-04-06T04:33:54.129Z,0
2018-04-06T04:34:19.628Z,0
2018-04-06T04:34:45.125Z,0
2018-04-06T04:35:10.634Z,0
2018-04-06T04:35:36.127Z,0
2018-04-06T04:36:01.626Z,0
2018-04-06T04:36:27.123Z,0
2018-04-06T04:36:52.621Z,0
2018-04-06T04:37:18.117Z,0
2018-04-06T04:37:43.609Z,0
2018-04-06T04:38:09.114Z,0
2018-04-06T04:38:34.610Z,0
2018-04-06T04:39:00.114Z,0
2018-04-06T04:39:25.612Z,0
2018-04-06T04:39:51.109Z,0
2018-04-06T04:40:16.602Z,0
2018-04-06T04:40:42.094Z,0
2018-04-06T04:41:07.598Z,0
2018-04-06T04:41:33.093Z,0
2018-04-06T04:41:58.588Z,0
2018-04-06T04:42:24.086Z,0
2018-04-06T04:42:49.590Z,0
2018-04-06T04:43:15.078Z,0
2018-04-06T04:43:40.578Z,0
2018-04-06T04:44:06.099Z,0
2018-04-06T04:44:31.590Z,0
2018-04-06T04:44:57.101Z,0
2018-04-06T04:45:22.598Z,0
2018-04-06T04:45:48.097Z,0
2018-04-06T04:46:13.596Z,0
2018-04-06T04:46:39.095Z,0
2018-04-06T04:47:04.584Z,0
2018-04-06T04:47:30.090Z,5
2018-04-06T04:47:55.579Z,5
2018-04-06T04:48:21.083Z,5
2018-04-06T04:48:46.582Z,5
2018-04-06T04:49:12.082Z,5
2018-04-06T04:49:37.572Z,5
2018-04-06T04:50:03.068Z,5
2018-04-06T04:50:28.562Z,5
2018-04-06T04:50:54.073Z,5
2018-04-06T04:51:19.568Z,5
2018-04-06T04:51:45.066Z,5
2018-04-06T04:52:10.556Z,5
2018-04-06T04:52:36.051Z,5
2018-04-06T04:53:01.608Z,5
2018-04-06T04:53:27.119Z,5
2018-04-06T04:53:52.618Z,5
2018-04-06T04:54:18.115Z,5
2018-04-06T04:54:43.667Z,5
2018-04-06T04:55:09.166Z,5
2018-04-06T04:55:34.667Z,10
2018-04-06T04:56:00.160Z,10
2018-04-06T04:56:25.657Z,10
2018-04-06T04:56:51.161Z,10
2018-04-06T04:57:16.665Z,10
2018-04-06T04:57:42.167Z,10
2018-04-06T04:58:07.661Z,10
2018-04-06T04:58:33.157Z,10
2018-04-06T04:58:58.648Z,10
2018-04-06T04:59:24.144Z,10
2018-04-06T04:59:49.642Z,10
2018-04-06T05:00:15.141Z,10
2018-04-06T05:00:40.644Z,10
2018-04-06T05:01:06.142Z,10
2018-04-06T05:01:31.642Z,15
2018-04-06T05:01:57.135Z,15
2018-04-06T05:02:22.639Z,15
2018-04-06T05:02:48.122Z,15
2018-04-06T05:03:13.621Z,15
2018-04-06T05:03:39.122Z,15
2018-04-06T05:04:04.641Z,15
2018-04-06T05:04:30.125Z,15
2018-04-06T05:04:55.618Z,15
2018-04-06T05:05:21.121Z,15
2018-04-06T05:05:46.613Z,15
2018-04-06T05:06:12.130Z,15
2018-04-06T05:06:37.634Z,20
2018-04-06T05:07:03.217Z,20
2018-04-06T05:07:28.871Z,20
2018-04-06T05:07:54.821Z,20
2018-04-06T05:08:20.311Z,20
2018-04-06T05:08:45.803Z,20
2018-04-06T05:09:11.306Z,20
2018-04-06T05:09:36.802Z,20
2018-04-06T05:10:02.303Z,20
2018-04-06T05:10:27.798Z,20
2018-04-06T05:10:53.299Z,20
2018-04-06T05:11:18.795Z,25
2018-04-06T05:11:44.298Z,25
2018-04-06T05:12:09.792Z,25
2018-04-06T05:12:35.288Z,25
2018-04-06T05:13:00.786Z,25
2018-04-06T05:13:26.282Z,25
2018-04-06T05:13:51.784Z,25
2018-04-06T05:14:17.307Z,25
2018-04-06T05:14:42.818Z,25
2018-04-06T05:15:08.318Z,25
2018-04-06T05:15:33.809Z,30
2018-04-06T05:15:59.293Z,30
2018-04-06T05:16:24.791Z,30
2018-04-06T05:16:50.862Z,30
2018-04-06T05:17:16.357Z,30
2018-04-06T05:17:41.929Z,30
2018-04-06T05:18:07.355Z,30
2018-04-06T05:18:32.854Z,30
2018-04-06T05:18:58.365Z,30
2018-04-06T05:19:23.836Z,30
2018-04-06T05:19:49.328Z,35
2018-04-06T05:20:14.848Z,35
2018-04-06T05:20:40.373Z,35
2018-04-06T05:21:05.860Z,30
2018-04-06T05:21:31.337Z,35
2018-04-06T05:21:56.831Z,35
2018-04-06T05:22:22.329Z,35
2018-04-06T05:22:47.812Z,35
2018-04-06T05:23:13.291Z,35
2018-04-06T05:23:38.799Z,35
2018-04-06T05:24:04.294Z,35
2018-04-06T05:24:29.847Z,40
2018-04-06T05:24:55.295Z,40
2018-04-06T05:25:20.806Z,40
2018-04-06T05:25:46.292Z,40
2018-04-06T05:26:11.778Z,40
2018-04-06T05:26:37.264Z,40
2018-04-06T05:27:02.756Z,40
2018-04-06T05:27:28.253Z,40
2018-04-06T05:27:53.731Z,40
2018-04-06T05:28:19.196Z,40
2018-04-06T05:28:44.706Z,40
2018-04-06T05:29:10.212Z,45
2018-04-06T05:29:35.704Z,45
2018-04-06T05:30:01.206Z,45
2018-04-06T05:30:26.696Z,45
2018-04-06T05:30:52.186Z,45
2018-04-06T05:31:17.692Z,45
2018-04-06T05:31:43.197Z,45
2018-04-06T05:32:08.697Z,45
2018-04-06T05:32:34.195Z,45
2018-04-06T05:32:59.696Z,45
2018-04-06T05:33:25.208Z,50
2018-04-06T05:33:50.704Z,50
2018-04-06T05:34:16.202Z,50
2018-04-06T05:34:41.700Z,50
2018-04-06T05:35:07.194Z,50
2018-04-06T05:35:32.696Z,50
2018-04-06T05:35:58.195Z,50
2018-04-06T05:36:23.685Z,50
2018-04-06T05:36:49.187Z,50
2018-04-06T05:37:14.684Z,50
2018-04-06T05:37:40.183Z,50
2018-04-06T05:38:05.683Z,55
2018-04-06T05:38:31.172Z,55
2018-04-06T05:38:56.673Z,55
2018-04-06T05:39:22.178Z,55
2018-04-06T05:39:47.670Z,55
2018-04-06T05:40:13.171Z,55
2018-04-06T05:40:38.675Z,55
2018-04-06T05:41:04.171Z,55
2018-04-06T05:41:29.667Z,55
2018-04-06T05:41:55.171Z,60
2018-04-06T05:42:20.668Z,60
2018-04-06T05:42:46.164Z,60
2018-04-06T05:43:11.669Z,60
2018-04-06T05:43:37.159Z,60
2018-04-06T05:44:02.661Z,65
2018-04-06T05:44:28.156Z,65
2018-04-06T05:44:53.661Z,65
2018-04-06T05:45:19.154Z,65
2018-04-06T05:45:44.663Z,70
2018-04-06T05:46:10.164Z,70
2018-04-06T05:46:35.659Z,70
2018-04-06T05:47:01.164Z,70
2018-04-06T05:47:26.669Z,70
2018-04-06T05:47:52.224Z,70
2018-04-06T05:48:17.725Z,70
2018-04-06T05:48:43.233Z,70
2018-04-06T05:49:08.737Z,75
2018-04-06T05:49:34.249Z,75
2018-04-06T05:49:59.740Z,75
2018-04-06T05:50:25.229Z,75
2018-04-06T05:50:50.723Z,80
2018-04-06T05:51:16.230Z,80
2018-04-06T05:51:41.731Z,80
2018-04-06T05:52:07.229Z,85
2018-04-06T05:52:32.724Z,85
2018-04-06T05:52:58.228Z,90
2018-04-06T05:53:23.730Z,90
2018-04-06T05:53:49.218Z,90
2018-04-06T05:54:14.727Z,95
2018-04-06T05:54:40.232Z,95
2018-04-06T05:55:05.742Z,95
2018-04-06T05:55:31.235Z,95
2018-04-06T05:55:56.784Z,95
2018-04-06T05:56:22.292Z,95
2018-04-06T05:56:47.795Z,100
2018-04-06T05:57:13.295Z,100
2018-04-06T05:57:38.792Z,100
2018-04-06T05:58:04.292Z,100
2018-04-06T05:58:29.791Z,100
2018-04-06T05:58:55.290Z,100
2018-04-06T05:59:20.786Z,110
2018-04-06T05:59:46.287Z,105
2018-04-06T06:00:11.788Z,105
2018-04-06T06:00:37.289Z,105
2018-04-06T06:01:02.788Z,105
2018-04-06T06:01:28.288Z,105
2018-04-06T06:01:53.794Z,105
2018-04-06T06:02:19.295Z,105
2018-04-06T06:02:44.794Z,110
2018-04-06T06:03:10.304Z,110
2018-04-06T06:03:35.793Z,110
2018-04-06T06:04:01.303Z,110
2018-04-06T06:04:26.810Z,110
2018-04-06T06:04:52.299Z,110
2018-04-06T06:05:17.787Z,110
2018-04-06T06:05:43.284Z,110
2018-04-06T06:06:08.783Z,110
2018-04-06T06:06:34.288Z,115
2018-04-06T06:06:59.785Z,115
2018-04-06T06:07:25.291Z,115
2018-04-06T06:07:50.783Z,115
2018-04-06T06:08:16.288Z,115
2018-04-06T06:08:41.789Z,115
2018-04-06T06:09:07.284Z,115
2018-04-06T06:09:32.781Z,115
2018-04-06T06:09:58.284Z,115
2018-04-06T06:10:23.790Z,115
2018-04-06T06:10:49.295Z,120
2018-04-06T06:11:14.796Z,120
2018-04-06T06:11:40.304Z,120
2018-04-06T06:12:05.799Z,120
2018-04-06T06:12:31.298Z,120
2018-04-06T06:12:56.806Z,120
2018-04-06T06:13:22.314Z,120
2018-04-06T06:13:47.815Z,120
2018-04-06T06:14:13.310Z,120
2018-04-06T06:14:38.808Z,120
2018-04-06T06:15:04.297Z,120
2018-04-06T06:15:29.806Z,120
2018-04-06T06:15:55.304Z,120
2018-04-06T06:16:20.802Z,120
2018-04-06T06:16:46.314Z,125
2018-04-06T06:17:11.808Z,130
2018-04-06T06:17:37.315Z,125
2018-04-06T06:18:02.812Z,125
2018-04-06T06:18:28.323Z,125
2018-04-06T06:18:53.828Z,120
2018-04-06T06:19:19.317Z,125
2018-04-06T06:19:44.813Z,125
2018-04-06T06:20:10.325Z,125
2018-04-06T06:20:35.808Z,125
2018-04-06T06:21:01.319Z,125
2018-04-06T06:21:26.793Z,125
2018-04-06T06:21:52.292Z,125
2018-04-06T06:22:17.787Z,125
2018-04-06T06:22:43.279Z,125
2018-04-06T06:23:08.778Z,130
2018-04-06T06:23:34.273Z,130
2018-04-06T06:23:59.761Z,130
2018-04-06T06:24:25.258Z,130
2018-04-06T06:24:50.760Z,130
2018-04-06T06:25:16.269Z,125
2018-04-06T06:25:41.761Z,130
2018-04-06T06:26:07.268Z,130
2018-04-06T06:26:32.762Z,130
2018-04-06T06:26:58.266Z,130
2018-04-06T06:27:23.755Z,130
2018-04-06T06:27:49.247Z,130
2018-04-06T06:28:14.747Z,130
2018-04-06T06:28:40.261Z,130
2018-04-06T06:29:05.797Z,130
2018-04-06T06:29:31.255Z,130
2018-04-06T06:29:56.750Z,135
2018-04-06T06:30:22.245Z,135
2018-04-06T06:30:47.740Z,135
2018-04-06T06:31:13.225Z,135
2018-04-06T06:31:38.719Z,135
2018-04-06T06:32:04.213Z,135
2018-04-06T06:32:29.718Z,135
2018-04-06T06:32:55.217Z,135
2018-04-06T06:33:20.715Z,135
2018-04-06T06:33:46.206Z,135
2018-04-06T06:34:11.707Z,135
2018-04-06T06:34:37.210Z,135
2018-04-06T06:35:02.705Z,135
2018-04-06T06:35:28.202Z,135
2018-04-06T06:35:53.703Z,135
2018-04-06T06:36:19.201Z,135
2018-04-06T06:36:44.709Z,135
2018-04-06T06:37:10.203Z,135
2018-04-06T06:37:35.703Z,135
2018-04-06T06:38:01.204Z,140
2018-04-06T06:38:26.723Z,140
2018-04-06T06:38:52.220Z,140
2018-04-06T06:39:17.715Z,140
2018-04-06T06:39:43.212Z,140
2018-04-06T06:40:08.687Z,140
2018-04-06T06:40:34.168Z,140
2018-04-06T06:40:59.675Z,140
2018-04-06T06:41:25.177Z,145
2018-04-06T06:41:50.675Z,145
2018-04-06T06:42:16.168Z,140
2018-04-06T06:42:41.663Z,140
2018-04-06T06:43:07.190Z,140
2018-04-06T06:43:32.664Z,140
2018-04-06T06:43:58.162Z,140
2018-04-06T06:44:23.662Z,140
2018-04-06T06:44:49.155Z,140
2018-04-06T06:45:14.662Z,140
2018-04-06T06:45:40.156Z,140
2018-04-06T06:46:05.654Z,140
2018-04-06T06:46:31.150Z,140
2018-04-06T06:46:56.628Z,140
2018-04-06T06:47:22.148Z,140
2018-04-06T06:47:47.647Z,140
2018-04-06T06:48:13.171Z,140
2018-04-06T06:48:38.655Z,140
2018-04-06T06:49:04.136Z,145
2018-04-06T06:49:29.637Z,145
2018-04-06T06:49:55.145Z,145
2018-04-06T06:50:20.635Z,145
2018-04-06T06:50:46.139Z,145
2018-04-06T06:51:11.625Z,145
2018-04-06T06:51:37.123Z,145
2018-04-06T06:52:02.617Z,145
2018-04-06T06:52:28.114Z,145
2018-04-06T06:52:53.612Z,145
2018-04-06T06:53:19.110Z,145
2018-04-06T06:53:44.607Z,145
2018-04-06T06:54:10.098Z,145
2018-04-06T06:54:35.602Z,145
2018-04-06T06:55:01.105Z,145
2018-04-06T06:55:26.605Z,145
2018-04-06T06:55:52.102Z,145
2018-04-06T06:56:17.595Z,145
2018-04-06T06:56:43.095Z,145
2018-04-06T06:57:08.591Z,145
2018-04-06T06:57:34.114Z,145
2018-04-06T06:57:59.588Z,145
2018-04-06T06:58:25.091Z,145
2018-04-06T06:58:50.596Z,145
2018-04-06T06:59:16.094Z,145
2018-04-06T06:59:41.591Z,145
2018-04-06T07:00:07.078Z,145
2018-04-06T07:00:32.573Z,145
2018-04-06T07:00:58.114Z,150
2018-04-06T07:01:23.574Z,145
2018-04-06T07:01:49.074Z,150
2018-04-06T07:02:14.562Z,150
2018-04-06T07:02:40.063Z,150
2018-04-06T07:03:05.563Z,150
2018-04-06T07:03:31.052Z,150
2018-04-06T07:03:56.546Z,150
2018-04-06T07:04:22.055Z,150
2018-04-06T07:04:47.538Z,150
2018-04-06T07:05:13.024Z,150
2018-04-06T07:05:38.570Z,150
2018-04-06T07:06:04.063Z,150
2018-04-06T07:06:29.575Z,150
2018-04-06T07:06:55.058Z,150
2018-04-06T07:07:20.568Z,150
2018-04-06T07:07:46.080Z,150
2018-04-06T07:08:11.585Z,150
2018-04-06T07:08:37.092Z,150
2018-04-06T07:09:02.587Z,150
2018-04-06T07:09:28.085Z,150
2018-04-06T07:09:53.598Z,150
2018-04-06T07:10:19.097Z,150
2018-04-06T07:10:44.599Z,150
2018-04-06T07:11:10.118Z,155
2018-04-06T07:11:35.546Z,155
2018-04-06T07:12:01.058Z,155
2018-04-06T07:12:26.554Z,155
2018-04-06T07:12:52.096Z,155
2018-04-06T07:13:17.593Z,155
2018-04-06T07:13:43.088Z,155
2018-04-06T07:14:08.688Z,150
2018-04-06T07:14:34.233Z,155
2018-04-06T07:14:59.811Z,155
2018-04-06T07:15:25.361Z,155
2018-04-06T07:15:50.878Z,155
2018-04-06T07:16:16.374Z,155
2018-04-06T07:16:41.908Z,150
2018-04-06T07:17:07.365Z,150
2018-04-06T07:17:32.871Z,150
2018-04-06T07:17:58.353Z,150
2018-04-06T07:18:23.856Z,150
2018-04-06T07:18:49.379Z,150
2018-04-06T07:19:14.868Z,150
2018-04-06T07:19:40.403Z,150
2018-04-06T07:20:05.874Z,150
2018-04-06T07:20:31.358Z,150
2018-04-06T07:20:56.844Z,150
2018-04-06T07:21:22.358Z,150
2018-04-06T07:21:47.852Z,150
2018-04-06T07:22:13.345Z,150
2018-04-06T07:22:38.841Z,150
2018-04-06T07:23:04.335Z,150
2018-04-06T07:23:29.839Z,150
2018-04-06T07:23:55.347Z,150
2018-04-06T07:24:20.864Z,150
2018-04-06T07:24:46.375Z,150
2018-04-06T07:25:11.886Z,150
2018-04-06T07:25:37.399Z,150
2018-04-06T07:26:02.907Z,150
2018-04-06T07:26:28.403Z,150
2018-04-06T07:26:53.935Z,150
2018-04-06T07:27:19.400Z,150
2018-04-06T07:27:44.904Z,150
2018-04-06T07:28:10.402Z,150
2018-04-06T07:28:35.923Z,150
2018-04-06T07:29:01.426Z,150
2018-04-06T07:29:26.920Z,150
2018-04-06T07:29:52.429Z,150
2018-04-06T07:30:17.913Z,150
2018-04-06T07:30:43.395Z,150
2018-04-06T07:31:08.900Z,150
2018-04-06T07:31:34.404Z,150
2018-04-06T07:31:59.898Z,150
2018-04-06T07:32:25.400Z,150
2018-04-06T07:32:50.908Z,150
2018-04-06T07:33:16.398Z,150
2018-04-06T07:33:41.919Z,150
2018-04-06T07:34:07.429Z,155
2018-04-06T07:34:32.918Z,155
2018-04-06T07:34:58.414Z,155
2018-04-06T07:35:23.916Z,155
2018-04-06T07:35:49.402Z,155
2018-04-06T07:36:14.896Z,155
2018-04-06T07:36:40.402Z,155
2018-04-06T07:37:05.898Z,160
2018-04-06T07:37:31.379Z,155
2018-04-06T07:37:56.875Z,155
2018-04-06T07:38:22.370Z,155
2018-04-06T07:38:47.883Z,155
2018-04-06T07:39:13.381Z,155
2018-04-06T07:39:38.865Z,155
2018-04-06T07:40:04.381Z,155
2018-04-06T07:40:29.863Z,155
2018-04-06T07:40:55.360Z,155
2018-04-06T07:41:20.872Z,155
2018-04-06T07:41:46.370Z,155
2018-04-06T07:42:11.879Z,155
2018-04-06T07:42:37.388Z,155
2018-04-06T07:43:02.900Z,155
2018-04-06T07:43:28.409Z,155
2018-04-06T07:43:53.946Z,155
2018-04-06T07:44:19.567Z,155
2018-04-06T07:44:44.954Z,155
2018-04-06T07:45:10.447Z,155
2018-04-06T07:45:35.970Z,155
2018-04-06T07:46:01.464Z,155
2018-04-06T07:46:26.961Z,155
2018-04-06T07:46:52.448Z,155
2018-04-06T07:47:17.941Z,155
2018-04-06T07:47:43.437Z,155
2018-04-06T07:48:08.943Z,155
2018-04-06T07:48:34.441Z,155
2018-04-06T07:48:59.959Z,160
2018-04-06T07:49:25.439Z,155
2018-04-06T07:49:50.938Z,155
2018-04-06T07:50:16.435Z,155
2018-04-06T07:50:41.937Z,160
2018-04-06T07:51:07.427Z,160
2018-04-06T07:51:32.943Z,160
2018-04-06T07:51:58.440Z,155
2018-04-06T07:52:23.945Z,155
2018-04-06T07:53:32.649Z,155
2018-04-06T07:53:58.165Z,155
2018-04-06T07:54:23.659Z,155
2018-04-06T07:54:49.190Z,155
2018-04-06T07:55:14.683Z,155
2018-04-06T07:55:40.180Z,155
2018-04-06T07:56:05.676Z,155
2018-04-06T07:56:31.168Z,155
2018-04-06T07:56:56.678Z,155
2018-04-06T07:57:22.195Z,155
2018-04-06T07:57:47.699Z,155
2018-04-06T07:58:13.185Z,155
2018-04-06T07:58:38.669Z,155
2018-04-06T07:59:04.195Z,150
2018-04-06T07:59:29.686Z,150
2018-04-06T07:59:55.197Z,150
2018-04-06T08:00:20.692Z,150
2018-04-06T08:00:46.189Z,150
2018-04-06T08:01:11.681Z,150
2018-04-06T08:01:37.162Z,150
2018-04-06T08:02:02.673Z,150
2018-04-06T08:02:28.161Z,150
2018-04-06T08:02:53.655Z,150
2018-04-06T08:03:19.174Z,150
2018-04-06T08:03:44.634Z,150
2018-04-06T08:04:10.141Z,150
2018-04-06T08:04:35.637Z,145
2018-04-06T08:05:01.124Z,145
2018-04-06T08:05:26.625Z,145
2018-04-06T08:05:52.124Z,145
2018-04-06T08:06:17.617Z,145
2018-04-06T08:06:43.116Z,145
2018-04-06T08:07:08.610Z,150
2018-04-06T08:07:34.104Z,150
2018-04-06T08:07:59.609Z,145
2018-04-06T08:08:25.105Z,145
2018-04-06T08:08:50.610Z,145
2018-04-06T08:09:16.103Z,145
2018-04-06T08:09:41.608Z,145
2018-04-06T08:10:07.141Z,145
2018-04-06T08:10:32.674Z,145
2018-04-06T08:10:58.142Z,150
2018-04-06T08:11:23.643Z,145
2018-04-06T08:11:49.137Z,145
2018-04-06T08:12:14.624Z,145
2018-04-06T08:12:40.123Z,140
2018-04-06T08:13:05.602Z,140
2018-04-06T08:13:31.096Z,140
2018-04-06T08:13:56.598Z,140
2018-04-06T08:14:22.093Z,140
2018-04-06T08:14:47.592Z,140
2018-04-06T08:15:13.084Z,140
2018-04-06T08:15:38.601Z,140
2018-04-06T08:16:04.086Z,140
2018-04-06T08:16:29.572Z,140
2018-04-06T08:16:55.082Z,140
2018-04-06T08:17:20.591Z,140
2018-04-06T08:17:46.083Z,140
2018-04-06T08:18:11.568Z,140
2018-04-06T08:18:37.076Z,140
2018-04-06T08:19:02.547Z,140
2018-04-06T08:19:28.048Z,140
2018-04-06T08:19:53.546Z,140
2018-04-06T08:20:19.034Z,140
2018-04-06T08:20:44.527Z,140
2018-04-06T08:21:10.041Z,135
2018-04-06T08:21:35.535Z,135
2018-04-06T08:22:01.021Z,135
2018-04-06T08:22:26.500Z,135
2018-04-06T08:22:52.002Z,135
2018-04-06T08:23:17.480Z,135
2018-04-06T08:23:42.970Z,135
2018-04-06T08:24:08.475Z,135
2018-04-06T08:24:33.961Z,135
2018-04-06T08:24:59.474Z,130
2018-04-06T08:25:25.002Z,130
2018-04-06T08:25:50.504Z,130
2018-04-06T08:26:16.060Z,130
2018-04-06T08:26:41.492Z,130
2018-04-06T08:27:06.995Z,130
2018-04-06T08:27:32.500Z,130
2018-04-06T08:27:58.001Z,130
2018-04-06T08:28:23.499Z,130
2018-04-06T08:28:49.018Z,130
2018-04-06T08:29:14.535Z,130
2018-04-06T08:29:40.034Z,130
2018-04-06T08:30:05.532Z,130
2018-04-06T08:30:31.026Z,130
2018-04-06T08:30:56.514Z,135
2018-04-06T08:31:22.011Z,135
2018-04-06T08:31:47.506Z,135
2018-04-06T08:32:13.005Z,135
2018-04-06T08:32:38.508Z,135
2018-04-06T08:33:04.002Z,135
2018-04-06T08:33:29.499Z,140
2018-04-06T08:33:54.997Z,140
2018-04-06T08:34:20.503Z,140
2018-04-06T08:34:46.013Z,140
2018-04-06T08:35:11.500Z,140
2018-04-06T08:35:36.990Z,140
2018-04-06T08:36:02.480Z,140
2018-04-06T08:36:27.973Z,140
2018-04-06T08:36:53.458Z,140
2018-04-06T08:37:18.953Z,140
2018-04-06T08:37:44.453Z,140
2018-04-06T08:38:09.954Z,140
2018-04-06T08:38:35.462Z,140
2018-04-06T08:39:00.964Z,140
2018-04-06T08:39:26.465Z,140
2018-04-06T08:39:51.974Z,140
2018-04-06T08:40:17.476Z,140
2018-04-06T08:40:42.966Z,140
2018-04-06T08:41:08.475Z,140
2018-04-06T08:41:33.966Z,140
2018-04-06T08:41:59.483Z,140
2018-04-06T08:42:24.973Z,140
2018-04-06T08:42:50.470Z,140
2018-04-06T08:43:15.967Z,140
2018-04-06T08:43:41.451Z,140
2018-04-06T08:44:06.973Z,140
2018-04-06T08:44:32.473Z,140
2018-04-06T08:44:57.963Z,140
2018-04-06T08:45:23.489Z,140
2018-04-06T08:45:48.977Z,140
2018-04-06T08:46:14.467Z,140
2018-04-06T08:46:39.959Z,140
2018-04-06T08:47:05.454Z,140
2018-04-06T08:47:30.934Z,140
2018-04-06T08:47:56.441Z,140
2018-04-06T08:48:21.936Z,140
2018-04-06T08:48:47.437Z,145
2018-04-06T08:49:12.949Z,140
2018-04-06T08:49:38.445Z,140
2018-04-06T08:50:03.921Z,140
2018-04-06T08:50:29.438Z,140
2018-04-06T08:50:54.929Z,140
2018-04-06T08:51:20.422Z,140
2018-04-06T08:51:45.920Z,140
2018-04-06T08:52:11.451Z,140
2018-04-06T08:52:36.917Z,145
2018-04-06T08:53:02.416Z,140
2018-04-06T08:53:27.945Z,140
2018-04-06T08:53:53.459Z,140
2018-04-06T08:54:18.972Z,140
2018-04-06T08:54:44.586Z,140
2018-04-06T08:55:10.040Z,135
2018-04-06T08:55:35.566Z,135
2018-04-06T08:56:01.090Z,135
2018-04-06T08:56:26.635Z,135
2018-04-06T08:56:52.152Z,135
2018-04-06T08:57:17.686Z,140
2018-04-06T08:57:43.177Z,135
2018-04-06T08:58:08.692Z,135
2018-04-06T08:58:34.220Z,135
2018-04-06T08:58:59.728Z,135
2018-04-06T08:59:25.243Z,135
2018-04-06T08:59:50.741Z,135
2018-04-06T09:00:16.225Z,135
2018-04-06T09:00:41.767Z,135
2018-04-06T09:01:07.314Z,135
2018-04-06T09:01:32.889Z,135
2018-04-06T09:01:58.382Z,135
2018-04-06T09:02:23.918Z,135
2018-04-06T09:02:49.448Z,135
2018-04-06T09:03:15.014Z,135
2018-04-06T09:03:40.568Z,135
2018-04-06T09:04:06.172Z,135
2018-04-06T09:04:31.738Z,135
2018-04-06T09:04:57.261Z,135
2018-04-06T09:05:22.743Z,135
2018-04-06T09:05:48.321Z,135
2018-04-06T09:06:13.826Z,135
2018-04-06T09:06:39.325Z,135
2018-04-06T09:07:04.822Z,135
2018-04-06T09:07:30.355Z,135
2018-04-06T09:07:55.872Z,135
2018-04-06T09:08:21.333Z,135
2018-04-06T09:08:46.891Z,135
2018-04-06T09:09:12.312Z,135
2018-04-06T09:09:37.819Z,135
2018-04-06T09:10:03.355Z,135
2018-04-06T09:10:28.865Z,135
2018-04-06T09:10:54.336Z,135
2018-04-06T09:11:19.886Z,135
2018-04-06T09:11:45.432Z,135
2018-04-06T09:12:11.000Z,135
2018-04-06T09:12:36.489Z,135
2018-04-06T09:13:01.961Z,135
2018-04-06T09:13:27.465Z,135
2018-04-06T09:13:52.950Z,135
2018-04-06T09:14:18.431Z,135
2018-04-06T09:14:43.929Z,135
2018-04-06T09:15:09.449Z,130
2018-04-06T09:15:34.954Z,130
2018-04-06T09:16:00.422Z,130
2018-04-06T09:16:25.894Z,130
2018-04-06T09:16:51.429Z,130
2018-04-06T09:17:16.926Z,130
2018-04-06T09:17:42.431Z,130
2018-04-06T09:18:07.921Z,130
2018-04-06T09:18:33.463Z,130
2018-04-06T09:18:58.982Z,130
2018-04-06T09:19:24.543Z,130
2018-04-06T09:19:50.018Z,130
2018-04-06T09:20:15.515Z,130
2018-04-06T09:20:41.019Z,130
2018-04-06T09:21:06.526Z,130
2018-04-06T09:21:32.014Z,130
2018-04-06T09:21:57.517Z,130
2018-04-06T09:22:23.048Z,130
2018-04-06T09:22:48.560Z,130
2018-04-06T09:23:14.077Z,130
2018-04-06T09:23:39.554Z,130
2018-04-06T09:24:05.043Z,130
2018-04-06T09:24:30.548Z,130
2018-04-06T09:24:56.039Z,130
2018-04-06T09:25:21.528Z,130
2018-04-06T09:25:47.022Z,130
2018-04-06T09:26:12.498Z,130
2018-04-06T09:26:37.978Z,130
2018-04-06T09:27:03.520Z,130
2018-04-06T09:27:29.010Z,130
2018-04-06T09:27:54.527Z,130
2018-04-06T09:28:20.010Z,130
2018-04-06T09:28:45.494Z,130
2018-04-06T09:29:10.989Z,130
2018-04-06T09:29:36.517Z,130
2018-04-06T09:30:02.015Z,130
2018-04-06T09:30:27.511Z,130
2018-04-06T09:30:52.999Z,130
2018-04-06T09:31:18.513Z,130
2018-04-06T09:31:44.024Z,130
2018-04-06T09:32:09.495Z,130
2018-04-06T09:32:34.992Z,130
2018-04-06T09:33:00.474Z,130
2018-04-06T09:33:25.960Z,130
2018-04-06T09:33:51.457Z,125
2018-04-06T09:34:16.959Z,125
2018-04-06T09:34:42.471Z,125
2018-04-06T09:35:07.976Z,125
2018-04-06T09:35:33.480Z,125
2018-04-06T09:35:58.976Z,125
2018-04-06T09:37:22.990Z,125
2018-04-06T09:37:48.487Z,125
2018-04-06T09:38:13.981Z,125
2018-04-06T09:38:39.477Z,125
2018-04-06T09:39:04.975Z,125
2018-04-06T09:39:30.476Z,125
2018-04-06T09:39:55.974Z,125
2018-04-06T09:40:21.476Z,125
2018-04-06T09:40:46.965Z,125
2018-04-06T09:41:12.465Z,125
2018-04-06T09:41:37.958Z,125
2018-04-06T09:42:03.458Z,125
2018-04-06T09:42:28.943Z,125
2018-04-06T09:42:54.455Z,125
2018-04-06T09:43:19.992Z,125
2018-04-06T09:43:45.482Z,125
2018-04-06T09:44:10.965Z,125
2018-04-06T09:44:36.511Z,125
2018-04-06T09:45:02.059Z,125
2018-04-06T09:45:27.580Z,125
2018-04-06T09:45:53.128Z,125
2018-04-06T09:46:18.682Z,125
2018-04-06T09:46:44.238Z,125
2018-04-06T09:47:09.819Z,125
2018-04-06T09:47:35.305Z,125
2018-04-06T09:48:00.794Z,125
2018-04-06T09:48:26.281Z,125
2018-04-06T09:48:51.799Z,125
2018-04-06T09:49:17.297Z,125
2018-04-06T09:49:42.788Z,125
2018-04-06T09:50:08.326Z,125
2018-04-06T09:50:33.839Z,125
2018-04-06T09:50:59.306Z,125
2018-04-06T09:51:24.785Z,120
2018-04-06T09:51:50.274Z,120
2018-04-06T09:52:15.765Z,120
2018-04-06T09:52:41.274Z,120
2018-04-06T09:53:06.776Z,120
2018-04-06T09:53:32.247Z,120
2018-04-06T09:53:57.742Z,120
2018-04-06T09:54:23.244Z,120
2018-04-06T09:54:48.742Z,120
2018-04-06T09:55:14.235Z,120
2018-04-06T09:55:39.733Z,120
2018-04-06T09:56:05.228Z,120
2018-04-06T09:56:30.719Z,120
2018-04-06T09:56:56.216Z,120
2018-04-06T09:57:21.716Z,120
2018-04-06T09:57:47.223Z,120
2018-04-06T09:58:12.729Z,120
2018-04-06T09:58:38.218Z,120
2018-04-06T09:59:03.718Z,120
2018-04-06T09:59:29.227Z,120
2018-04-06T09:59:54.732Z,120